sensor_id;sensor_type;location;lat;lon;timestamp;P1;durP1;ratioP1;P2;durP2;ratioP2
28007;SDS011;15333;50.010;20.020;2023-12-20T00:01:04;30.92;;;14.48;;
28007;SDS011;15333;50.010;20.020;2023-12-20T00:04:18;31.45;;;13.77;;
28007;SDS011;15333;50.010;20.020;2023-12-20T00:07:19;32.90;;;15.00;;
28007;SDS011;15333;50.010;20.020;2023-12-20T00:10:20;31.77;;;14.65;;
28007;SDS011;15333;50.010;20.020;2023-12-20T00:13:21;30.17;;;14.10;;
28007;SDS011;15333;50.010;20.020;2023-12-20T00:16:22;31.60;;;15.52;;
28007;SDS011;15333;50.010;20.020;2023-12-20T00:19:22;30.13;;;14.55;;
28007;SDS011;15333;50.010;20.020;2023-12-20T00:22:24;31.50;;;14.52;;
28007;SDS011;15333;50.010;20.020;2023-12-20T00:25:25;26.42;;;13.70;;
28007;SDS011;15333;50.010;20.020;2023-12-20T00:28:26;27.50;;;14.23;;
28007;SDS011;15333;50.010;20.020;2023-12-20T00:31:27;32.05;;;15.25;;
28007;SDS011;15333;50.010;20.020;2023-12-20T00:34:28;34.17;;;15.57;;
28007;SDS011;15333;50.010;20.020;2023-12-20T00:37:29;35.33;;;16.58;;
28007;SDS011;15333;50.010;20.020;2023-12-20T00:40:29;39.58;;;15.77;;
28007;SDS011;15333;50.010;20.020;2023-12-20T00:43:30;40.00;;;17.55;;
28007;SDS011;15333;50.010;20.020;2023-12-20T00:46:31;40.42;;;17.67;;
28007;SDS011;15333;50.010;20.020;2023-12-20T00:49:32;44.58;;;17.40;;
28007;SDS011;15333;50.010;20.020;2023-12-20T00:52:33;36.83;;;17.60;;
28007;SDS011;15333;50.010;20.020;2023-12-20T00:55:34;40.38;;;18.25;;
28007;SDS011;15333;50.010;20.020;2023-12-20T00:58:34;39.05;;;18.52;;
28007;SDS011;15333;50.010;20.020;2023-12-20T01:01:35;39.83;;;17.70;;
28007;SDS011;15333;50.010;20.020;2023-12-20T01:04:36;32.47;;;15.70;;
28007;SDS011;15333;50.010;20.020;2023-12-20T01:07:37;32.28;;;16.40;;
28007;SDS011;15333;50.010;20.020;2023-12-20T01:10:38;33.63;;;16.52;;
28007;SDS011;15333;50.010;20.020;2023-12-20T01:13:39;34.08;;;16.92;;
28007;SDS011;15333;50.010;20.020;2023-12-20T01:16:39;29.65;;;15.25;;
28007;SDS011;15333;50.010;20.020;2023-12-20T01:19:40;33.80;;;16.65;;
28007;SDS011;15333;50.010;20.020;2023-12-20T01:22:41;36.88;;;16.75;;
28007;SDS011;15333;50.010;20.020;2023-12-20T01:25:43;37.95;;;16.23;;
28007;SDS011;15333;50.010;20.020;2023-12-20T01:28:44;35.78;;;16.67;;
28007;SDS011;15333;50.010;20.020;2023-12-20T01:31:45;36.20;;;17.75;;
28007;SDS011;15333;50.010;20.020;2023-12-20T01:34:45;38.45;;;18.80;;
28007;SDS011;15333;50.010;20.020;2023-12-20T01:37:46;34.85;;;18.27;;
28007;SDS011;15333;50.010;20.020;2023-12-20T01:40:47;39.40;;;18.75;;
28007;SDS011;15333;50.010;20.020;2023-12-20T01:43:48;34.90;;;18.15;;
28007;SDS011;15333;50.010;20.020;2023-12-20T01:46:49;40.78;;;18.50;;
28007;SDS011;15333;50.010;20.020;2023-12-20T01:49:50;36.53;;;18.85;;
28007;SDS011;15333;50.010;20.020;2023-12-20T01:52:51;31.67;;;16.70;;
28007;SDS011;15333;50.010;20.020;2023-12-20T01:55:54;29.00;;;14.43;;
28007;SDS011;15333;50.010;20.020;2023-12-20T01:58:56;26.35;;;13.75;;
28007;SDS011;15333;50.010;20.020;2023-12-20T02:01:57;21.05;;;10.73;;
28007;SDS011;15333;50.010;20.020;2023-12-20T02:04:58;19.42;;;9.85;;
28007;SDS011;15333;50.010;20.020;2023-12-20T02:07:59;12.60;;;7.50;;
28007;SDS011;15333;50.010;20.020;2023-12-20T02:11:00;12.60;;;7.10;;
28007;SDS011;15333;50.010;20.020;2023-12-20T02:14:02;13.23;;;7.05;;
28007;SDS011;15333;50.010;20.020;2023-12-20T02:17:03;12.90;;;6.47;;
28007;SDS011;15333;50.010;20.020;2023-12-20T02:20:04;12.85;;;6.35;;
28007;SDS011;15333;50.010;20.020;2023-12-20T02:23:06;11.65;;;6.07;;
28007;SDS011;15333;50.010;20.020;2023-12-20T02:26:07;12.73;;;6.30;;
28007;SDS011;15333;50.010;20.020;2023-12-20T02:29:07;12.55;;;7.00;;
28007;SDS011;15333;50.010;20.020;2023-12-20T02:32:09;12.48;;;6.93;;
28007;SDS011;15333;50.010;20.020;2023-12-20T02:35:09;12.77;;;6.68;;
28007;SDS011;15333;50.010;20.020;2023-12-20T02:38:10;12.10;;;6.32;;
28007;SDS011;15333;50.010;20.020;2023-12-20T02:41:11;11.05;;;6.63;;
28007;SDS011;15333;50.010;20.020;2023-12-20T02:44:12;12.77;;;5.93;;
28007;SDS011;15333;50.010;20.020;2023-12-20T02:47:13;10.60;;;5.40;;
28007;SDS011;15333;50.010;20.020;2023-12-20T02:50:14;11.02;;;5.97;;
28007;SDS011;15333;50.010;20.020;2023-12-20T02:53:14;10.65;;;6.13;;
28007;SDS011;15333;50.010;20.020;2023-12-20T02:56:15;9.32;;;5.20;;
28007;SDS011;15333;50.010;20.020;2023-12-20T02:59:16;9.38;;;5.88;;
28007;SDS011;15333;50.010;20.020;2023-12-20T03:02:17;7.60;;;4.78;;
28007;SDS011;15333;50.010;20.020;2023-12-20T03:05:19;6.25;;;4.28;;
28007;SDS011;15333;50.010;20.020;2023-12-20T03:08:21;8.30;;;4.60;;
28007;SDS011;15333;50.010;20.020;2023-12-20T03:11:21;7.50;;;4.95;;
28007;SDS011;15333;50.010;20.020;2023-12-20T03:14:26;6.78;;;4.80;;
28007;SDS011;15333;50.010;20.020;2023-12-20T03:17:27;7.30;;;4.65;;
28007;SDS011;15333;50.010;20.020;2023-12-20T03:20:28;9.07;;;4.38;;
28007;SDS011;15333;50.010;20.020;2023-12-20T03:23:29;6.35;;;4.22;;
28007;SDS011;15333;50.010;20.020;2023-12-20T03:26:31;7.25;;;4.38;;
28007;SDS011;15333;50.010;20.020;2023-12-20T03:29:31;8.40;;;4.32;;
28007;SDS011;15333;50.010;20.020;2023-12-20T03:32:32;6.47;;;4.07;;
28007;SDS011;15333;50.010;20.020;2023-12-20T03:35:33;6.00;;;4.07;;
28007;SDS011;15333;50.010;20.020;2023-12-20T03:38:34;6.88;;;4.35;;
28007;SDS011;15333;50.010;20.020;2023-12-20T03:41:35;6.85;;;4.35;;
28007;SDS011;15333;50.010;20.020;2023-12-20T03:44:38;6.80;;;4.47;;
28007;SDS011;15333;50.010;20.020;2023-12-20T03:47:40;7.15;;;4.43;;
28007;SDS011;15333;50.010;20.020;2023-12-20T03:50:41;6.72;;;4.30;;
28007;SDS011;15333;50.010;20.020;2023-12-20T03:53:42;8.32;;;4.95;;
28007;SDS011;15333;50.010;20.020;2023-12-20T03:56:43;9.43;;;6.15;;
28007;SDS011;15333;50.010;20.020;2023-12-20T03:59:43;9.57;;;5.53;;
28007;SDS011;15333;50.010;20.020;2023-12-20T04:02:44;9.70;;;5.85;;
28007;SDS011;15333;50.010;20.020;2023-12-20T04:05:45;8.75;;;5.05;;
28007;SDS011;15333;50.010;20.020;2023-12-20T04:08:46;10.40;;;5.47;;
28007;SDS011;15333;50.010;20.020;2023-12-20T04:11:47;8.88;;;5.55;;
28007;SDS011;15333;50.010;20.020;2023-12-20T04:14:48;10.18;;;5.80;;
28007;SDS011;15333;50.010;20.020;2023-12-20T04:17:48;11.68;;;6.78;;
28007;SDS011;15333;50.010;20.020;2023-12-20T04:20:49;10.25;;;6.35;;
28007;SDS011;15333;50.010;20.020;2023-12-20T04:23:52;9.10;;;5.70;;
28007;SDS011;15333;50.010;20.020;2023-12-20T04:26:53;10.55;;;6.03;;
28007;SDS011;15333;50.010;20.020;2023-12-20T04:29:54;9.45;;;6.13;;
28007;SDS011;15333;50.010;20.020;2023-12-20T04:32:55;11.05;;;6.05;;
28007;SDS011;15333;50.010;20.020;2023-12-20T04:35:56;9.65;;;6.18;;
28007;SDS011;15333;50.010;20.020;2023-12-20T04:38:58;12.38;;;6.43;;
28007;SDS011;15333;50.010;20.020;2023-12-20T04:42:00;13.07;;;7.15;;
28007;SDS011;15333;50.010;20.020;2023-12-20T04:45:01;10.65;;;6.63;;
28007;SDS011;15333;50.010;20.020;2023-12-20T04:48:01;15.75;;;6.63;;
28007;SDS011;15333;50.010;20.020;2023-12-20T04:51:03;12.32;;;7.13;;
28007;SDS011;15333;50.010;20.020;2023-12-20T04:54:04;13.55;;;6.65;;
28007;SDS011;15333;50.010;20.020;2023-12-20T04:57:04;10.95;;;6.65;;
28007;SDS011;15333;50.010;20.020;2023-12-20T05:00:05;12.98;;;6.85;;
28007;SDS011;15333;50.010;20.020;2023-12-20T05:03:09;14.13;;;7.80;;
28007;SDS011;15333;50.010;20.020;2023-12-20T05:06:10;11.48;;;6.95;;
28007;SDS011;15333;50.010;20.020;2023-12-20T05:09:11;10.75;;;7.00;;
28007;SDS011;15333;50.010;20.020;2023-12-20T05:12:12;10.20;;;7.05;;
28007;SDS011;15333;50.010;20.020;2023-12-20T05:15:13;13.00;;;6.70;;
28007;SDS011;15333;50.010;20.020;2023-12-20T05:18:13;13.30;;;6.82;;
28007;SDS011;15333;50.010;20.020;2023-12-20T05:21:15;10.25;;;6.60;;
28007;SDS011;15333;50.010;20.020;2023-12-20T05:24:15;11.05;;;6.63;;
28007;SDS011;15333;50.010;20.020;2023-12-20T05:27:16;9.45;;;6.38;;
28007;SDS011;15333;50.010;20.020;2023-12-20T05:30:17;11.52;;;6.30;;
28007;SDS011;15333;50.010;20.020;2023-12-20T05:33:18;10.02;;;6.18;;
28007;SDS011;15333;50.010;20.020;2023-12-20T05:36:19;8.85;;;6.07;;
28007;SDS011;15333;50.010;20.020;2023-12-20T05:39:20;9.10;;;6.18;;
28007;SDS011;15333;50.010;20.020;2023-12-20T05:42:21;10.77;;;6.32;;
28007;SDS011;15333;50.010;20.020;2023-12-20T05:45:22;13.45;;;6.65;;
28007;SDS011;15333;50.010;20.020;2023-12-20T05:48:22;11.60;;;6.10;;
28007;SDS011;15333;50.010;20.020;2023-12-20T05:51:23;10.75;;;6.45;;
28007;SDS011;15333;50.010;20.020;2023-12-20T05:54:24;11.00;;;6.55;;
28007;SDS011;15333;50.010;20.020;2023-12-20T05:57:25;13.75;;;7.60;;
28007;SDS011;15333;50.010;20.020;2023-12-20T06:00:26;11.07;;;7.20;;
28007;SDS011;15333;50.010;20.020;2023-12-20T06:03:27;13.65;;;7.50;;
28007;SDS011;15333;50.010;20.020;2023-12-20T06:06:28;11.45;;;7.05;;
28007;SDS011;15333;50.010;20.020;2023-12-20T06:09:28;14.48;;;7.38;;
28007;SDS011;15333;50.010;20.020;2023-12-20T06:12:30;12.10;;;7.63;;
28007;SDS011;15333;50.010;20.020;2023-12-20T06:15:32;14.05;;;7.68;;
28007;SDS011;15333;50.010;20.020;2023-12-20T06:18:33;13.15;;;7.45;;
28007;SDS011;15333;50.010;20.020;2023-12-20T06:21:34;11.40;;;7.00;;
28007;SDS011;15333;50.010;20.020;2023-12-20T06:24:35;10.80;;;7.22;;
28007;SDS011;15333;50.010;20.020;2023-12-20T06:27:36;13.57;;;8.18;;
28007;SDS011;15333;50.010;20.020;2023-12-20T06:30:37;12.15;;;7.95;;
28007;SDS011;15333;50.010;20.020;2023-12-20T06:33:38;13.23;;;7.95;;
28007;SDS011;15333;50.010;20.020;2023-12-20T06:36:41;12.35;;;8.00;;
28007;SDS011;15333;50.010;20.020;2023-12-20T06:39:42;13.13;;;8.15;;
28007;SDS011;15333;50.010;20.020;2023-12-20T06:42:43;14.02;;;8.07;;
28007;SDS011;15333;50.010;20.020;2023-12-20T06:45:44;14.07;;;8.65;;
28007;SDS011;15333;50.010;20.020;2023-12-20T06:48:45;12.27;;;8.20;;
28007;SDS011;15333;50.010;20.020;2023-12-20T06:51:46;12.82;;;8.65;;
28007;SDS011;15333;50.010;20.020;2023-12-20T06:54:47;15.23;;;9.48;;
28007;SDS011;15333;50.010;20.020;2023-12-20T06:57:48;14.55;;;9.45;;
28007;SDS011;15333;50.010;20.020;2023-12-20T07:00:50;19.92;;;10.70;;
28007;SDS011;15333;50.010;20.020;2023-12-20T07:03:52;15.63;;;9.43;;
28007;SDS011;15333;50.010;20.020;2023-12-20T07:06:52;16.92;;;10.55;;
28007;SDS011;15333;50.010;20.020;2023-12-20T07:09:57;18.05;;;10.93;;
28007;SDS011;15333;50.010;20.020;2023-12-20T07:12:58;17.10;;;11.27;;
28007;SDS011;15333;50.010;20.020;2023-12-20T07:15:59;17.95;;;11.27;;
28007;SDS011;15333;50.010;20.020;2023-12-20T07:19:00;19.77;;;11.90;;
28007;SDS011;15333;50.010;20.020;2023-12-20T07:22:01;18.80;;;12.00;;
28007;SDS011;15333;50.010;20.020;2023-12-20T07:25:02;21.38;;;12.50;;
28007;SDS011;15333;50.010;20.020;2023-12-20T07:28:04;19.60;;;12.45;;
28007;SDS011;15333;50.010;20.020;2023-12-20T07:31:05;21.58;;;14.35;;
28007;SDS011;15333;50.010;20.020;2023-12-20T07:34:06;21.20;;;13.23;;
28007;SDS011;15333;50.010;20.020;2023-12-20T07:37:07;20.17;;;12.85;;
28007;SDS011;15333;50.010;20.020;2023-12-20T07:40:10;21.77;;;13.80;;
28007;SDS011;15333;50.010;20.020;2023-12-20T07:43:12;21.75;;;14.70;;
28007;SDS011;15333;50.010;20.020;2023-12-20T07:46:13;22.27;;;14.80;;
28007;SDS011;15333;50.010;20.020;2023-12-20T07:49:13;25.67;;;15.90;;
28007;SDS011;15333;50.010;20.020;2023-12-20T07:52:14;24.85;;;15.90;;
28007;SDS011;15333;50.010;20.020;2023-12-20T07:55:15;25.52;;;17.15;;
28007;SDS011;15333;50.010;20.020;2023-12-20T07:58:16;25.30;;;17.38;;
28007;SDS011;15333;50.010;20.020;2023-12-20T08:01:17;25.38;;;16.33;;
28007;SDS011;15333;50.010;20.020;2023-12-20T08:04:19;31.33;;;18.08;;
28007;SDS011;15333;50.010;20.020;2023-12-20T08:07:19;26.45;;;16.08;;
28007;SDS011;15333;50.010;20.020;2023-12-20T08:10:20;23.70;;;15.88;;
28007;SDS011;15333;50.010;20.020;2023-12-20T08:13:21;23.02;;;16.38;;
28007;SDS011;15333;50.010;20.020;2023-12-20T08:16:26;23.05;;;16.10;;
28007;SDS011;15333;50.010;20.020;2023-12-20T08:19:27;24.85;;;17.00;;
28007;SDS011;15333;50.010;20.020;2023-12-20T08:22:28;27.30;;;18.15;;
28007;SDS011;15333;50.010;20.020;2023-12-20T08:25:29;27.63;;;19.17;;
28007;SDS011;15333;50.010;20.020;2023-12-20T08:28:30;33.40;;;19.83;;
28007;SDS011;15333;50.010;20.020;2023-12-20T08:31:31;31.83;;;19.15;;
28007;SDS011;15333;50.010;20.020;2023-12-20T08:34:32;29.98;;;19.25;;
28007;SDS011;15333;50.010;20.020;2023-12-20T08:37:34;30.80;;;19.17;;
28007;SDS011;15333;50.010;20.020;2023-12-20T08:40:35;33.58;;;19.65;;
28007;SDS011;15333;50.010;20.020;2023-12-20T08:43:36;30.52;;;19.58;;
28007;SDS011;15333;50.010;20.020;2023-12-20T08:46:37;29.88;;;18.05;;
28007;SDS011;15333;50.010;20.020;2023-12-20T08:49:37;24.13;;;15.85;;
28007;SDS011;15333;50.010;20.020;2023-12-20T08:52:39;27.55;;;16.65;;
28007;SDS011;15333;50.010;20.020;2023-12-20T08:55:40;24.85;;;16.60;;
28007;SDS011;15333;50.010;20.020;2023-12-20T08:58:41;23.38;;;15.02;;
28007;SDS011;15333;50.010;20.020;2023-12-20T09:01:42;20.05;;;14.65;;
28007;SDS011;15333;50.010;20.020;2023-12-20T09:04:43;22.90;;;14.80;;
28007;SDS011;15333;50.010;20.020;2023-12-20T09:07:44;22.00;;;13.48;;
28007;SDS011;15333;50.010;20.020;2023-12-20T09:10:45;23.40;;;14.50;;
28007;SDS011;15333;50.010;20.020;2023-12-20T09:13:46;22.13;;;15.10;;
28007;SDS011;15333;50.010;20.020;2023-12-20T09:16:47;23.40;;;13.63;;
28007;SDS011;15333;50.010;20.020;2023-12-20T09:19:47;19.50;;;13.25;;
28007;SDS011;15333;50.010;20.020;2023-12-20T09:22:49;22.60;;;13.73;;
28007;SDS011;15333;50.010;20.020;2023-12-20T09:25:50;18.25;;;12.40;;
28007;SDS011;15333;50.010;20.020;2023-12-20T09:28:51;20.10;;;13.70;;
28007;SDS011;15333;50.010;20.020;2023-12-20T09:31:51;19.35;;;12.65;;
28007;SDS011;15333;50.010;20.020;2023-12-20T09:34:52;18.38;;;12.80;;
28007;SDS011;15333;50.010;20.020;2023-12-20T09:37:53;19.60;;;13.80;;
28007;SDS011;15333;50.010;20.020;2023-12-20T09:40:54;21.55;;;13.32;;
28007;SDS011;15333;50.010;20.020;2023-12-20T09:43:56;18.30;;;13.05;;
28007;SDS011;15333;50.010;20.020;2023-12-20T09:47:03;21.15;;;14.50;;
28007;SDS011;15333;50.010;20.020;2023-12-20T09:50:05;22.55;;;16.00;;
28007;SDS011;15333;50.010;20.020;2023-12-20T09:53:07;23.45;;;14.02;;
28007;SDS011;15333;50.010;20.020;2023-12-20T09:56:10;21.70;;;15.05;;
28007;SDS011;15333;50.010;20.020;2023-12-20T09:59:12;25.23;;;16.02;;
28007;SDS011;15333;50.010;20.020;2023-12-20T10:02:13;23.42;;;15.55;;
28007;SDS011;15333;50.010;20.020;2023-12-20T10:05:16;25.40;;;15.15;;
28007;SDS011;15333;50.010;20.020;2023-12-20T10:08:21;22.25;;;14.60;;
28007;SDS011;15333;50.010;20.020;2023-12-20T10:11:22;22.80;;;15.45;;
28007;SDS011;15333;50.010;20.020;2023-12-20T10:14:23;21.42;;;14.98;;
28007;SDS011;15333;50.010;20.020;2023-12-20T10:17:24;21.77;;;13.93;;
28007;SDS011;15333;50.010;20.020;2023-12-20T10:20:29;20.13;;;14.07;;
28007;SDS011;15333;50.010;20.020;2023-12-20T10:23:31;21.23;;;13.20;;
28007;SDS011;15333;50.010;20.020;2023-12-20T10:26:32;19.70;;;12.63;;
28007;SDS011;15333;50.010;20.020;2023-12-20T10:29:36;20.35;;;12.13;;
28007;SDS011;15333;50.010;20.020;2023-12-20T10:32:38;15.57;;;11.57;;
28007;SDS011;15333;50.010;20.020;2023-12-20T10:35:39;18.02;;;12.00;;
28007;SDS011;15333;50.010;20.020;2023-12-20T10:38:40;14.13;;;10.27;;
28007;SDS011;15333;50.010;20.020;2023-12-20T10:41:43;15.30;;;10.30;;
28007;SDS011;15333;50.010;20.020;2023-12-20T10:44:46;11.52;;;8.52;;
28007;SDS011;15333;50.010;20.020;2023-12-20T10:47:48;11.25;;;7.28;;
28007;SDS011;15333;50.010;20.020;2023-12-20T10:50:50;13.32;;;9.13;;
28007;SDS011;15333;50.010;20.020;2023-12-20T10:53:52;14.18;;;9.68;;
28007;SDS011;15333;50.010;20.020;2023-12-20T10:56:54;12.82;;;9.70;;
28007;SDS011;15333;50.010;20.020;2023-12-20T10:59:58;15.48;;;9.77;;
28007;SDS011;15333;50.010;20.020;2023-12-20T11:03:04;13.77;;;10.45;;
28007;SDS011;15333;50.010;20.020;2023-12-20T11:06:11;15.75;;;11.15;;
28007;SDS011;15333;50.010;20.020;2023-12-20T11:09:36;18.73;;;11.30;;
28007;SDS011;15333;50.010;20.020;2023-12-20T11:12:49;15.32;;;10.55;;
28007;SDS011;15333;50.010;20.020;2023-12-20T11:16:03;15.93;;;10.52;;
28007;SDS011;15333;50.010;20.020;2023-12-20T11:19:05;15.55;;;9.93;;
28007;SDS011;15333;50.010;20.020;2023-12-20T11:22:06;15.32;;;10.68;;
28007;SDS011;15333;50.010;20.020;2023-12-20T11:25:10;15.15;;;10.07;;
28007;SDS011;15333;50.010;20.020;2023-12-20T11:28:12;15.38;;;10.57;;
28007;SDS011;15333;50.010;20.020;2023-12-20T11:31:13;17.30;;;10.02;;
28007;SDS011;15333;50.010;20.020;2023-12-20T11:34:14;15.70;;;10.82;;
28007;SDS011;15333;50.010;20.020;2023-12-20T11:37:18;14.27;;;9.98;;
28007;SDS011;15333;50.010;20.020;2023-12-20T11:40:20;12.55;;;9.10;;
28007;SDS011;15333;50.010;20.020;2023-12-20T11:43:35;12.88;;;8.10;;
28007;SDS011;15333;50.010;20.020;2023-12-20T11:46:37;12.80;;;10.07;;
28007;SDS011;15333;50.010;20.020;2023-12-20T11:49:38;12.98;;;9.10;;
28007;SDS011;15333;50.010;20.020;2023-12-20T11:52:38;13.23;;;9.25;;
28007;SDS011;15333;50.010;20.020;2023-12-20T11:55:39;11.55;;;8.75;;
28007;SDS011;15333;50.010;20.020;2023-12-20T11:58:40;12.35;;;8.43;;
28007;SDS011;15333;50.010;20.020;2023-12-20T12:01:47;13.05;;;8.48;;
28007;SDS011;15333;50.010;20.020;2023-12-20T12:04:49;13.30;;;8.93;;
28007;SDS011;15333;50.010;20.020;2023-12-20T12:07:53;13.98;;;8.95;;
28007;SDS011;15333;50.010;20.020;2023-12-20T12:10:54;13.50;;;9.77;;
28007;SDS011;15333;50.010;20.020;2023-12-20T12:13:55;13.15;;;9.35;;
28007;SDS011;15333;50.010;20.020;2023-12-20T12:16:56;12.40;;;7.78;;
28007;SDS011;15333;50.010;20.020;2023-12-20T12:20:04;13.90;;;7.50;;
28007;SDS011;15333;50.010;20.020;2023-12-20T12:23:06;10.60;;;7.93;;
28007;SDS011;15333;50.010;20.020;2023-12-20T12:26:07;10.68;;;7.53;;
28007;SDS011;15333;50.010;20.020;2023-12-20T12:29:09;11.52;;;7.95;;
28007;SDS011;15333;50.010;20.020;2023-12-20T12:32:10;13.52;;;8.35;;
28007;SDS011;15333;50.010;20.020;2023-12-20T12:35:11;12.85;;;8.75;;
28007;SDS011;15333;50.010;20.020;2023-12-20T12:38:12;12.13;;;8.07;;
28007;SDS011;15333;50.010;20.020;2023-12-20T12:41:13;10.93;;;8.10;;
28007;SDS011;15333;50.010;20.020;2023-12-20T12:44:15;13.38;;;8.80;;
28007;SDS011;15333;50.010;20.020;2023-12-20T12:47:18;15.48;;;9.60;;
28007;SDS011;15333;50.010;20.020;2023-12-20T12:50:19;12.40;;;7.97;;
28007;SDS011;15333;50.010;20.020;2023-12-20T12:53:20;12.82;;;9.25;;
28007;SDS011;15333;50.010;20.020;2023-12-20T12:56:21;12.68;;;9.02;;
28007;SDS011;15333;50.010;20.020;2023-12-20T12:59:22;12.32;;;8.85;;
28007;SDS011;15333;50.010;20.020;2023-12-20T13:02:23;11.93;;;8.00;;
28007;SDS011;15333;50.010;20.020;2023-12-20T13:05:24;12.30;;;9.38;;
28007;SDS011;15333;50.010;20.020;2023-12-20T13:08:26;11.80;;;8.05;;
28007;SDS011;15333;50.010;20.020;2023-12-20T13:11:26;11.65;;;8.25;;
28007;SDS011;15333;50.010;20.020;2023-12-20T13:14:27;11.25;;;8.27;;
28007;SDS011;15333;50.010;20.020;2023-12-20T13:17:28;12.75;;;8.13;;
28007;SDS011;15333;50.010;20.020;2023-12-20T13:20:29;17.45;;;9.30;;
28007;SDS011;15333;50.010;20.020;2023-12-20T13:23:30;12.50;;;8.30;;
28007;SDS011;15333;50.010;20.020;2023-12-20T13:26:31;10.85;;;8.10;;
28007;SDS011;15333;50.010;20.020;2023-12-20T13:29:32;13.40;;;8.85;;
28007;SDS011;15333;50.010;20.020;2023-12-20T13:32:33;14.85;;;9.60;;
28007;SDS011;15333;50.010;20.020;2023-12-20T13:35:34;14.13;;;10.38;;
28007;SDS011;15333;50.010;20.020;2023-12-20T13:38:35;13.77;;;9.90;;
28007;SDS011;15333;50.010;20.020;2023-12-20T13:41:35;15.55;;;9.25;;
28007;SDS011;15333;50.010;20.020;2023-12-20T13:44:36;14.93;;;9.75;;
28007;SDS011;15333;50.010;20.020;2023-12-20T13:47:37;14.18;;;9.95;;
28007;SDS011;15333;50.010;20.020;2023-12-20T13:50:39;16.63;;;10.82;;
28007;SDS011;15333;50.010;20.020;2023-12-20T13:53:39;13.32;;;10.13;;
28007;SDS011;15333;50.010;20.020;2023-12-20T13:56:40;12.55;;;9.38;;
28007;SDS011;15333;50.010;20.020;2023-12-20T13:59:41;12.10;;;9.10;;
28007;SDS011;15333;50.010;20.020;2023-12-20T14:02:42;13.25;;;8.45;;
28007;SDS011;15333;50.010;20.020;2023-12-20T14:05:43;13.45;;;9.25;;
28007;SDS011;15333;50.010;20.020;2023-12-20T14:08:44;15.32;;;10.20;;
28007;SDS011;15333;50.010;20.020;2023-12-20T14:11:45;15.93;;;10.05;;
28007;SDS011;15333;50.010;20.020;2023-12-20T14:14:46;15.43;;;9.95;;
28007;SDS011;15333;50.010;20.020;2023-12-20T14:17:47;14.20;;;9.98;;
28007;SDS011;15333;50.010;20.020;2023-12-20T14:20:48;15.23;;;9.63;;
28007;SDS011;15333;50.010;20.020;2023-12-20T14:23:51;13.93;;;10.05;;
28007;SDS011;15333;50.010;20.020;2023-12-20T14:26:52;13.77;;;9.70;;
28007;SDS011;15333;50.010;20.020;2023-12-20T14:29:54;14.38;;;9.00;;
28007;SDS011;15333;50.010;20.020;2023-12-20T14:32:55;15.00;;;9.63;;
28007;SDS011;15333;50.010;20.020;2023-12-20T14:35:56;14.63;;;9.55;;
28007;SDS011;15333;50.010;20.020;2023-12-20T14:38:57;15.68;;;9.73;;
28007;SDS011;15333;50.010;20.020;2023-12-20T14:41:58;14.05;;;9.18;;
28007;SDS011;15333;50.010;20.020;2023-12-20T14:44:59;14.20;;;9.75;;
28007;SDS011;15333;50.010;20.020;2023-12-20T14:48:00;12.85;;;8.68;;
28007;SDS011;15333;50.010;20.020;2023-12-20T14:51:01;14.43;;;9.43;;
28007;SDS011;15333;50.010;20.020;2023-12-20T14:54:02;14.13;;;8.73;;
28007;SDS011;15333;50.010;20.020;2023-12-20T14:57:03;13.88;;;8.95;;
28007;SDS011;15333;50.010;20.020;2023-12-20T15:00:04;14.02;;;9.32;;
28007;SDS011;15333;50.010;20.020;2023-12-20T15:03:06;15.35;;;10.27;;
28007;SDS011;15333;50.010;20.020;2023-12-20T15:06:07;16.70;;;10.18;;
28007;SDS011;15333;50.010;20.020;2023-12-20T15:09:12;14.25;;;9.55;;
28007;SDS011;15333;50.010;20.020;2023-12-20T15:12:12;15.93;;;10.88;;
28007;SDS011;15333;50.010;20.020;2023-12-20T15:15:14;15.48;;;11.52;;
28007;SDS011;15333;50.010;20.020;2023-12-20T15:18:14;15.35;;;11.02;;
28007;SDS011;15333;50.010;20.020;2023-12-20T15:21:15;15.65;;;10.68;;
28007;SDS011;15333;50.010;20.020;2023-12-20T15:24:17;17.00;;;11.18;;
28007;SDS011;15333;50.010;20.020;2023-12-20T15:27:20;15.90;;;10.80;;
28007;SDS011;15333;50.010;20.020;2023-12-20T15:30:21;16.30;;;11.77;;
28007;SDS011;15333;50.010;20.020;2023-12-20T15:33:22;19.85;;;12.25;;
28007;SDS011;15333;50.010;20.020;2023-12-20T15:36:23;18.85;;;12.32;;
28007;SDS011;15333;50.010;20.020;2023-12-20T15:39:24;18.85;;;12.40;;
28007;SDS011;15333;50.010;20.020;2023-12-20T15:42:25;15.93;;;11.02;;
28007;SDS011;15333;50.010;20.020;2023-12-20T15:45:26;16.63;;;10.85;;
28007;SDS011;15333;50.010;20.020;2023-12-20T15:48:27;18.70;;;10.45;;
28007;SDS011;15333;50.010;20.020;2023-12-20T15:51:29;15.20;;;9.80;;
28007;SDS011;15333;50.010;20.020;2023-12-20T15:54:30;15.80;;;10.82;;
28007;SDS011;15333;50.010;20.020;2023-12-20T15:57:31;16.13;;;10.43;;
28007;SDS011;15333;50.010;20.020;2023-12-20T16:00:32;18.38;;;12.05;;
28007;SDS011;15333;50.010;20.020;2023-12-20T16:03:33;16.58;;;11.25;;
28007;SDS011;15333;50.010;20.020;2023-12-20T16:06:34;20.13;;;12.93;;
28007;SDS011;15333;50.010;20.020;2023-12-20T16:09:36;20.27;;;14.23;;
28007;SDS011;15333;50.010;20.020;2023-12-20T16:12:36;21.45;;;15.20;;
28007;SDS011;15333;50.010;20.020;2023-12-20T16:15:37;20.65;;;14.65;;
28007;SDS011;15333;50.010;20.020;2023-12-20T16:18:38;19.98;;;14.60;;
28007;SDS011;15333;50.010;20.020;2023-12-20T16:21:39;18.73;;;15.07;;
28007;SDS011;15333;50.010;20.020;2023-12-20T16:24:40;19.15;;;14.13;;
28007;SDS011;15333;50.010;20.020;2023-12-20T16:27:41;15.50;;;12.05;;
28007;SDS011;15333;50.010;20.020;2023-12-20T16:30:42;17.85;;;12.88;;
28007;SDS011;15333;50.010;20.020;2023-12-20T16:33:43;19.88;;;13.38;;
28007;SDS011;15333;50.010;20.020;2023-12-20T16:39:52;15.57;;;12.40;;
28007;SDS011;15333;50.010;20.020;2023-12-20T16:42:54;15.30;;;10.73;;
28007;SDS011;15333;50.010;20.020;2023-12-20T16:45:56;18.05;;;11.10;;
28007;SDS011;15333;50.010;20.020;2023-12-20T16:48:57;15.82;;;11.45;;
28007;SDS011;15333;50.010;20.020;2023-12-20T16:51:58;16.23;;;12.57;;
28007;SDS011;15333;50.010;20.020;2023-12-20T16:54:59;17.63;;;11.77;;
28007;SDS011;15333;50.010;20.020;2023-12-20T16:58:00;14.10;;;11.07;;
28007;SDS011;15333;50.010;20.020;2023-12-20T17:01:01;16.15;;;11.20;;
28007;SDS011;15333;50.010;20.020;2023-12-20T17:04:02;16.73;;;12.38;;
28007;SDS011;15333;50.010;20.020;2023-12-20T17:07:03;15.38;;;11.20;;
28007;SDS011;15333;50.010;20.020;2023-12-20T17:10:04;17.60;;;11.65;;
28007;SDS011;15333;50.010;20.020;2023-12-20T17:13:06;17.65;;;11.95;;
28007;SDS011;15333;50.010;20.020;2023-12-20T17:16:08;16.38;;;12.18;;
28007;SDS011;15333;50.010;20.020;2023-12-20T17:19:08;16.08;;;12.23;;
28007;SDS011;15333;50.010;20.020;2023-12-20T17:22:09;17.35;;;12.98;;
28007;SDS011;15333;50.010;20.020;2023-12-20T17:25:10;18.05;;;12.85;;
28007;SDS011;15333;50.010;20.020;2023-12-20T17:28:12;15.27;;;11.27;;
28007;SDS011;15333;50.010;20.020;2023-12-20T17:31:13;17.67;;;11.88;;
28007;SDS011;15333;50.010;20.020;2023-12-20T17:34:14;15.50;;;11.27;;
28007;SDS011;15333;50.010;20.020;2023-12-20T17:37:14;18.15;;;11.63;;